sensor_id;sensor_type;location;lat;lon;timestamp;P1;durP1;ratioP1;P2;durP2;ratioP2
18090;SDS011;9172;49.948;9.208;2022-07-12T00:00:23;1.10;;;0.60;;
18090;SDS011;9172;49.948;9.208;2022-07-12T00:02:53;0.60;;;0.60;;
18090;SDS011;9172;49.948;9.208;2022-07-12T00:05:22;2.97;;;0.67;;
18090;SDS011;9172;49.948;9.208;2022-07-12T00:07:50;0.60;;;0.60;;
18090;SDS011;9172;49.948;9.208;2022-07-12T00:10:21;0.87;;;0.70;;
18090;SDS011;9172;49.948;9.208;2022-07-12T00:12:50;0.50;;;0.50;;
18090;SDS011;9172;49.948;9.208;2022-07-12T00:15:19;0.60;;;0.50;;
18090;SDS011;9172;49.948;9.208;2022-07-12T00:17:48;0.60;;;0.60;;
18090;SDS011;9172;49.948;9.208;2022-07-12T00:20:18;0.63;;;0.60;;
18090;SDS011;9172;49.948;9.208;2022-07-12T00:22:47;0.87;;;0.80;;
18090;SDS011;9172;49.948;9.208;2022-07-12T00:25:16;0.77;;;0.60;;
18090;SDS011;9172;49.948;9.208;2022-07-12T00:27:45;0.60;;;0.60;;
18090;SDS011;9172;49.948;9.208;2022-07-12T00:30:14;2.97;;;0.77;;
18090;SDS011;9172;49.948;9.208;2022-07-12T00:32:43;0.87;;;0.77;;
18090;SDS011;9172;49.948;9.208;2022-07-12T00:35:14;3.33;;;0.70;;
18090;SDS011;9172;49.948;9.208;2022-07-12T00:37:43;2.77;;;0.80;;
18090;SDS011;9172;49.948;9.208;2022-07-12T00:40:13;0.60;;;0.60;;
18090;SDS011;9172;49.948;9.208;2022-07-12T00:42:43;0.93;;;0.73;;
18090;SDS011;9172;49.948;9.208;2022-07-12T00:45:13;0.60;;;0.60;;
18090;SDS011;9172;49.948;9.208;2022-07-12T00:47:42;0.80;;;0.70;;
18090;SDS011;9172;49.948;9.208;2022-07-12T00:50:14;0.70;;;0.70;;
18090;SDS011;9172;49.948;9.208;2022-07-12T00:52:44;1.17;;;0.60;;
18090;SDS011;9172;49.948;9.208;2022-07-12T00:55:15;0.60;;;0.60;;
18090;SDS011;9172;49.948;9.208;2022-07-12T00:57:45;0.63;;;0.57;;
18090;SDS011;9172;49.948;9.208;2022-07-12T01:00:15;0.67;;;0.60;;
18090;SDS011;9172;49.948;9.208;2022-07-12T01:02:45;1.07;;;0.80;;
18090;SDS011;9172;49.948;9.208;2022-07-12T01:05:14;0.70;;;0.70;;
18090;SDS011;9172;49.948;9.208;2022-07-12T01:07:43;1.27;;;0.60;;
18090;SDS011;9172;49.948;9.208;2022-07-12T01:10:15;0.80;;;0.80;;
18090;SDS011;9172;49.948;9.208;2022-07-12T01:12:43;0.60;;;0.53;;
18090;SDS011;9172;49.948;9.208;2022-07-12T01:15:13;0.53;;;0.53;;
18090;SDS011;9172;49.948;9.208;2022-07-12T01:17:42;0.70;;;0.70;;
18090;SDS011;9172;49.948;9.208;2022-07-12T01:20:12;1.83;;;0.80;;
18090;SDS011;9172;49.948;9.208;2022-07-12T01:22:50;0.57;;;0.53;;
18090;SDS011;9172;49.948;9.208;2022-07-12T01:25:21;0.77;;;0.53;;
18090;SDS011;9172;49.948;9.208;2022-07-12T01:27:51;0.93;;;0.70;;
18090;SDS011;9172;49.948;9.208;2022-07-12T01:30:20;1.20;;;0.67;;
18090;SDS011;9172;49.948;9.208;2022-07-12T01:32:49;3.07;;;0.70;;
18090;SDS011;9172;49.948;9.208;2022-07-12T01:35:18;1.60;;;0.70;;
18090;SDS011;9172;49.948;9.208;2022-07-12T01:37:48;0.93;;;0.60;;
18090;SDS011;9172;49.948;9.208;2022-07-12T01:40:18;0.97;;;0.80;;
18090;SDS011;9172;49.948;9.208;2022-07-12T01:42:48;0.60;;;0.60;;
18090;SDS011;9172;49.948;9.208;2022-07-12T01:45:18;1.27;;;0.80;;
18090;SDS011;9172;49.948;9.208;2022-07-12T01:47:48;1.20;;;0.80;;
18090;SDS011;9172;49.948;9.208;2022-07-12T01:50:16;0.63;;;0.60;;
18090;SDS011;9172;49.948;9.208;2022-07-12T01:52:47;0.87;;;0.70;;
18090;SDS011;9172;49.948;9.208;2022-07-12T01:55:16;3.33;;;0.80;;
18090;SDS011;9172;49.948;9.208;2022-07-12T01:57:46;0.90;;;0.60;;
18090;SDS011;9172;49.948;9.208;2022-07-12T02:00:16;0.67;;;0.60;;
18090;SDS011;9172;49.948;9.208;2022-07-12T02:02:46;1.40;;;0.70;;
18090;SDS011;9172;49.948;9.208;2022-07-12T02:05:15;1.27;;;0.80;;
18090;SDS011;9172;49.948;9.208;2022-07-12T02:07:43;0.93;;;0.63;;
18090;SDS011;9172;49.948;9.208;2022-07-12T02:10:12;0.67;;;0.60;;
18090;SDS011;9172;49.948;9.208;2022-07-12T02:12:42;3.90;;;0.77;;
18090;SDS011;9172;49.948;9.208;2022-07-12T02:15:11;2.43;;;0.60;;
18090;SDS011;9172;49.948;9.208;2022-07-12T02:17:40;1.00;;;0.70;;
18090;SDS011;9172;49.948;9.208;2022-07-12T02:20:09;0.80;;;0.70;;
18090;SDS011;9172;49.948;9.208;2022-07-12T02:22:40;1.23;;;0.70;;
18090;SDS011;9172;49.948;9.208;2022-07-12T02:25:09;1.73;;;0.87;;
18090;SDS011;9172;49.948;9.208;2022-07-12T02:27:38;0.67;;;0.60;;
18090;SDS011;9172;49.948;9.208;2022-07-12T02:30:07;0.80;;;0.70;;
18090;SDS011;9172;49.948;9.208;2022-07-12T02:32:37;1.57;;;0.63;;
18090;SDS011;9172;49.948;9.208;2022-07-12T02:35:06;0.70;;;0.70;;
18090;SDS011;9172;49.948;9.208;2022-07-12T02:37:36;0.73;;;0.60;;
18090;SDS011;9172;49.948;9.208;2022-07-12T02:40:06;0.77;;;0.77;;
18090;SDS011;9172;49.948;9.208;2022-07-12T02:42:54;0.67;;;0.60;;
18090;SDS011;9172;49.948;9.208;2022-07-12T02:45:23;0.80;;;0.80;;
18090;SDS011;9172;49.948;9.208;2022-07-12T02:47:52;1.00;;;0.80;;
18090;SDS011;9172;49.948;9.208;2022-07-12T02:50:20;0.60;;;0.60;;
18090;SDS011;9172;49.948;9.208;2022-07-12T02:52:51;2.97;;;0.80;;
18090;SDS011;9172;49.948;9.208;2022-07-12T02:55:20;0.70;;;0.70;;
18090;SDS011;9172;49.948;9.208;2022-07-12T02:57:49;1.30;;;0.77;;
18090;SDS011;9172;49.948;9.208;2022-07-12T03:00:17;1.10;;;0.90;;
18090;SDS011;9172;49.948;9.208;2022-07-12T03:02:46;1.47;;;0.70;;
18090;SDS011;9172;49.948;9.208;2022-07-12T03:05:15;0.83;;;0.70;;
18090;SDS011;9172;49.948;9.208;2022-07-12T03:07:44;1.03;;;0.93;;
18090;SDS011;9172;49.948;9.208;2022-07-12T03:10:12;0.80;;;0.80;;
18090;SDS011;9172;49.948;9.208;2022-07-12T03:12:42;2.73;;;1.07;;
18090;SDS011;9172;49.948;9.208;2022-07-12T03:15:11;0.60;;;0.60;;
18090;SDS011;9172;49.948;9.208;2022-07-12T03:17:40;0.70;;;0.60;;
18090;SDS011;9172;49.948;9.208;2022-07-12T03:20:10;0.73;;;0.63;;
18090;SDS011;9172;49.948;9.208;2022-07-12T03:22:40;0.90;;;0.63;;
18090;SDS011;9172;49.948;9.208;2022-07-12T03:25:12;2.53;;;0.70;;
18090;SDS011;9172;49.948;9.208;2022-07-12T03:27:42;0.83;;;0.80;;
18090;SDS011;9172;49.948;9.208;2022-07-12T03:30:12;0.80;;;0.67;;
18090;SDS011;9172;49.948;9.208;2022-07-12T03:32:42;0.70;;;0.67;;
18090;SDS011;9172;49.948;9.208;2022-07-12T03:35:11;0.83;;;0.73;;
18090;SDS011;9172;49.948;9.208;2022-07-12T03:37:41;0.73;;;0.70;;
18090;SDS011;9172;49.948;9.208;2022-07-12T03:40:11;0.87;;;0.73;;
18090;SDS011;9172;49.948;9.208;2022-07-12T03:42:41;1.07;;;0.70;;
18090;SDS011;9172;49.948;9.208;2022-07-12T03:45:11;1.23;;;0.93;;
18090;SDS011;9172;49.948;9.208;2022-07-12T03:47:41;1.50;;;0.70;;
18090;SDS011;9172;49.948;9.208;2022-07-12T03:50:11;1.03;;;0.73;;
18090;SDS011;9172;49.948;9.208;2022-07-12T03:52:41;0.80;;;0.80;;
18090;SDS011;9172;49.948;9.208;2022-07-12T03:55:11;1.10;;;0.80;;
18090;SDS011;9172;49.948;9.208;2022-07-12T03:57:40;2.83;;;0.67;;
18090;SDS011;9172;49.948;9.208;2022-07-12T04:00:09;0.90;;;0.60;;
18090;SDS011;9172;49.948;9.208;2022-07-12T04:02:39;1.20;;;0.80;;
18090;SDS011;9172;49.948;9.208;2022-07-12T04:05:09;1.90;;;0.90;;
18090;SDS011;9172;49.948;9.208;2022-07-12T04:07:38;0.77;;;0.70;;
18090;SDS011;9172;49.948;9.208;2022-07-12T04:10:07;0.70;;;0.60;;
18090;SDS011;9172;49.948;9.208;2022-07-12T04:12:38;0.60;;;0.60;;
18090;SDS011;9172;49.948;9.208;2022-07-12T04:15:08;1.10;;;0.90;;
18090;SDS011;9172;49.948;9.208;2022-07-12T04:17:37;1.03;;;0.80;;
18090;SDS011;9172;49.948;9.208;2022-07-12T04:20:07;0.80;;;0.67;;
18090;SDS011;9172;49.948;9.208;2022-07-12T04:22:37;0.80;;;0.70;;
18090;SDS011;9172;49.948;9.208;2022-07-12T04:25:07;0.80;;;0.80;;
18090;SDS011;9172;49.948;9.208;2022-07-12T04:27:36;0.77;;;0.77;;
18090;SDS011;9172;49.948;9.208;2022-07-12T04:30:08;1.43;;;0.93;;
18090;SDS011;9172;49.948;9.208;2022-07-12T04:32:38;2.47;;;1.37;;
18090;SDS011;9172;49.948;9.208;2022-07-12T04:35:07;1.13;;;1.00;;
18090;SDS011;9172;49.948;9.208;2022-07-12T04:37:37;2.40;;;1.00;;
18090;SDS011;9172;49.948;9.208;2022-07-12T04:40:06;2.37;;;0.97;;
18090;SDS011;9172;49.948;9.208;2022-07-12T04:42:37;1.20;;;1.03;;
18090;SDS011;9172;49.948;9.208;2022-07-12T04:45:08;1.77;;;1.20;;
18090;SDS011;9172;49.948;9.208;2022-07-12T04:47:37;2.00;;;1.20;;
18090;SDS011;9172;49.948;9.208;2022-07-12T04:50:06;1.90;;;1.27;;
18090;SDS011;9172;49.948;9.208;2022-07-12T04:52:36;1.37;;;0.90;;
18090;SDS011;9172;49.948;9.208;2022-07-12T04:55:06;2.90;;;1.30;;
18090;SDS011;9172;49.948;9.208;2022-07-12T04:57:36;2.27;;;1.20;;
18090;SDS011;9172;49.948;9.208;2022-07-12T05:00:05;1.80;;;1.20;;
18090;SDS011;9172;49.948;9.208;2022-07-12T05:02:35;3.43;;;1.10;;
18090;SDS011;9172;49.948;9.208;2022-07-12T05:05:05;1.87;;;1.23;;
18090;SDS011;9172;49.948;9.208;2022-07-12T05:07:35;1.33;;;1.00;;
18090;SDS011;9172;49.948;9.208;2022-07-12T05:10:04;1.10;;;0.97;;
18090;SDS011;9172;49.948;9.208;2022-07-12T05:12:34;1.60;;;1.30;;
18090;SDS011;9172;49.948;9.208;2022-07-12T05:15:05;2.73;;;1.40;;
18090;SDS011;9172;49.948;9.208;2022-07-12T05:17:35;4.17;;;1.60;;
18090;SDS011;9172;49.948;9.208;2022-07-12T05:20:04;1.97;;;1.47;;
18090;SDS011;9172;49.948;9.208;2022-07-12T05:22:35;2.47;;;1.60;;
18090;SDS011;9172;49.948;9.208;2022-07-12T05:25:04;4.10;;;1.80;;
18090;SDS011;9172;49.948;9.208;2022-07-12T05:27:35;3.93;;;1.70;;
18090;SDS011;9172;49.948;9.208;2022-07-12T05:30:05;1.60;;;1.30;;
18090;SDS011;9172;49.948;9.208;2022-07-12T05:32:34;2.93;;;1.70;;
18090;SDS011;9172;49.948;9.208;2022-07-12T05:35:03;2.73;;;1.50;;
18090;SDS011;9172;49.948;9.208;2022-07-12T05:37:33;2.40;;;1.73;;
18090;SDS011;9172;49.948;9.208;2022-07-12T05:40:02;3.30;;;1.80;;
18090;SDS011;9172;49.948;9.208;2022-07-12T05:42:32;2.90;;;1.30;;
18090;SDS011;9172;49.948;9.208;2022-07-12T05:45:03;1.53;;;1.40;;
18090;SDS011;9172;49.948;9.208;2022-07-12T05:47:34;2.97;;;1.60;;
18090;SDS011;9172;49.948;9.208;2022-07-12T05:50:05;1.37;;;1.27;;
18090;SDS011;9172;49.948;9.208;2022-07-12T05:52:35;1.90;;;1.70;;
18090;SDS011;9172;49.948;9.208;2022-07-12T05:55:22;1.50;;;1.13;;
18090;SDS011;9172;49.948;9.208;2022-07-12T05:57:51;2.47;;;1.57;;
18090;SDS011;9172;49.948;9.208;2022-07-12T06:00:20;1.67;;;1.53;;
18090;SDS011;9172;49.948;9.208;2022-07-12T06:02:50;1.70;;;1.40;;
18090;SDS011;9172;49.948;9.208;2022-07-12T06:05:20;1.60;;;1.27;;
18090;SDS011;9172;49.948;9.208;2022-07-12T06:07:50;2.33;;;1.40;;
18090;SDS011;9172;49.948;9.208;2022-07-12T06:10:19;1.50;;;1.40;;
18090;SDS011;9172;49.948;9.208;2022-07-12T06:12:48;1.90;;;1.73;;
18090;SDS011;9172;49.948;9.208;2022-07-12T06:15:17;2.00;;;1.33;;
18090;SDS011;9172;49.948;9.208;2022-07-12T06:17:46;1.53;;;1.30;;
18090;SDS011;9172;49.948;9.208;2022-07-12T06:20:15;3.63;;;1.67;;
18090;SDS011;9172;49.948;9.208;2022-07-12T06:22:44;2.63;;;1.50;;
18090;SDS011;9172;49.948;9.208;2022-07-12T06:25:14;4.13;;;1.50;;
18090;SDS011;9172;49.948;9.208;2022-07-12T06:27:42;2.00;;;1.40;;
18090;SDS011;9172;49.948;9.208;2022-07-12T06:30:19;2.13;;;1.20;;
18090;SDS011;9172;49.948;9.208;2022-07-12T06:32:48;2.13;;;1.80;;
18090;SDS011;9172;49.948;9.208;2022-07-12T06:35:16;3.83;;;1.47;;
18090;SDS011;9172;49.948;9.208;2022-07-12T06:37:46;2.80;;;1.53;;
18090;SDS011;9172;49.948;9.208;2022-07-12T06:40:15;5.43;;;1.63;;
18090;SDS011;9172;49.948;9.208;2022-07-12T06:42:44;3.63;;;2.30;;
18090;SDS011;9172;49.948;9.208;2022-07-12T06:45:12;4.10;;;1.70;;
18090;SDS011;9172;49.948;9.208;2022-07-12T06:47:42;2.10;;;1.40;;
18090;SDS011;9172;49.948;9.208;2022-07-12T06:50:11;1.80;;;1.50;;
18090;SDS011;9172;49.948;9.208;2022-07-12T06:52:40;1.97;;;1.20;;
18090;SDS011;9172;49.948;9.208;2022-07-12T06:55:09;3.10;;;2.20;;
18090;SDS011;9172;49.948;9.208;2022-07-12T06:57:40;2.30;;;1.73;;
18090;SDS011;9172;49.948;9.208;2022-07-12T07:00:09;2.77;;;1.53;;
18090;SDS011;9172;49.948;9.208;2022-07-12T07:02:38;1.57;;;1.43;;
18090;SDS011;9172;49.948;9.208;2022-07-12T07:05:07;1.43;;;1.20;;
18090;SDS011;9172;49.948;9.208;2022-07-12T07:07:45;2.67;;;1.50;;
18090;SDS011;9172;49.948;9.208;2022-07-12T07:10:14;1.70;;;1.33;;
18090;SDS011;9172;49.948;9.208;2022-07-12T07:15:19;2.73;;;1.37;;
18090;SDS011;9172;49.948;9.208;2022-07-12T07:17:49;1.80;;;1.30;;
18090;SDS011;9172;49.948;9.208;2022-07-12T07:20:17;1.60;;;1.37;;
18090;SDS011;9172;49.948;9.208;2022-07-12T07:22:47;3.07;;;1.20;;
18090;SDS011;9172;49.948;9.208;2022-07-12T07:25:16;2.27;;;1.03;;
18090;SDS011;9172;49.948;9.208;2022-07-12T07:27:45;3.73;;;1.30;;
18090;SDS011;9172;49.948;9.208;2022-07-12T07:30:14;1.13;;;1.03;;
18090;SDS011;9172;49.948;9.208;2022-07-12T07:33:02;3.63;;;1.33;;
18090;SDS011;9172;49.948;9.208;2022-07-12T07:35:30;1.37;;;0.90;;
18090;SDS011;9172;49.948;9.208;2022-07-12T07:37:59;2.20;;;1.00;;
18090;SDS011;9172;49.948;9.208;2022-07-12T07:40:29;1.77;;;1.20;;
18090;SDS011;9172;49.948;9.208;2022-07-12T07:42:57;1.77;;;1.07;;
18090;SDS011;9172;49.948;9.208;2022-07-12T07:45:27;2.50;;;0.90;;
18090;SDS011;9172;49.948;9.208;2022-07-12T07:47:56;2.40;;;1.30;;
18090;SDS011;9172;49.948;9.208;2022-07-12T07:50:25;1.50;;;0.90;;
18090;SDS011;9172;49.948;9.208;2022-07-12T07:52:54;3.87;;;0.80;;
18090;SDS011;9172;49.948;9.208;2022-07-12T07:55:23;1.23;;;0.80;;
18090;SDS011;9172;49.948;9.208;2022-07-12T07:57:53;0.90;;;0.80;;
18090;SDS011;9172;49.948;9.208;2022-07-12T08:00:24;1.57;;;1.20;;
18090;SDS011;9172;49.948;9.208;2022-07-12T08:02:54;1.80;;;1.00;;
18090;SDS011;9172;49.948;9.208;2022-07-12T08:05:23;1.00;;;0.90;;
18090;SDS011;9172;49.948;9.208;2022-07-12T08:07:52;1.13;;;1.03;;
18090;SDS011;9172;49.948;9.208;2022-07-12T08:10:21;1.00;;;0.90;;
18090;SDS011;9172;49.948;9.208;2022-07-12T08:12:51;2.77;;;0.97;;
18090;SDS011;9172;49.948;9.208;2022-07-12T08:15:19;1.13;;;0.93;;
18090;SDS011;9172;49.948;9.208;2022-07-12T08:17:49;0.73;;;0.70;;
18090;SDS011;9172;49.948;9.208;2022-07-12T08:20:19;0.90;;;0.80;;
18090;SDS011;9172;49.948;9.208;2022-07-12T08:22:48;0.80;;;0.70;;
18090;SDS011;9172;49.948;9.208;2022-07-12T08:25:19;1.40;;;0.90;;
18090;SDS011;9172;49.948;9.208;2022-07-12T08:27:48;0.70;;;0.60;;
18090;SDS011;9172;49.948;9.208;2022-07-12T08:30:16;0.87;;;0.50;;
18090;SDS011;9172;49.948;9.208;2022-07-12T08:32:45;0.40;;;0.40;;
18090;SDS011;9172;49.948;9.208;2022-07-12T08:35:14;0.80;;;0.70;;
18090;SDS011;9172;49.948;9.208;2022-07-12T08:37:43;0.50;;;0.50;;
18090;SDS011;9172;49.948;9.208;2022-07-12T08:40:13;0.73;;;0.40;;
18090;SDS011;9172;49.948;9.208;2022-07-12T08:42:41;0.40;;;0.40;;
18090;SDS011;9172;49.948;9.208;2022-07-12T08:45:12;0.63;;;0.40;;
18090;SDS011;9172;49.948;9.208;2022-07-12T08:47:41;0.67;;;0.60;;
18090;SDS011;9172;49.948;9.208;2022-07-12T08:50:11;1.00;;;0.70;;
18090;SDS011;9172;49.948;9.208;2022-07-12T08:52:43;0.60;;;0.60;;
18090;SDS011;9172;49.948;9.208;2022-07-12T08:55:17;1.10;;;0.53;;
18090;SDS011;9172;49.948;9.208;2022-07-12T08:57:48;1.07;;;0.53;;
18090;SDS011;9172;49.948;9.208;2022-07-12T09:00:18;0.80;;;0.80;;
18090;SDS011;9172;49.948;9.208;2022-07-12T09:02:47;3.60;;;0.70;;
18090;SDS011;9172;49.948;9.208;2022-07-12T09:05:18;2.70;;;0.50;;
18090;SDS011;9172;49.948;9.208;2022-07-12T09:07:50;0.90;;;0.80;;
18090;SDS011;9172;49.948;9.208;2022-07-12T09:10:21;1.20;;;0.80;;
18090;SDS011;9172;49.948;9.208;2022-07-12T09:12:51;0.80;;;0.60;;
18090;SDS011;9172;49.948;9.208;2022-07-12T09:15:20;1.87;;;0.70;;
18090;SDS011;9172;49.948;9.208;2022-07-12T09:17:57;0.90;;;0.70;;
18090;SDS011;9172;49.948;9.208;2022-07-12T09:20:27;1.00;;;0.60;;
18090;SDS011;9172;49.948;9.208;2022-07-12T09:22:57;0.77;;;0.70;;
18090;SDS011;9172;49.948;9.208;2022-07-12T09:25:28;2.10;;;0.80;;
18090;SDS011;9172;49.948;9.208;2022-07-12T09:27:58;1.13;;;0.70;;
18090;SDS011;9172;49.948;9.208;2022-07-12T09:30:29;0.80;;;0.60;;
18090;SDS011;9172;49.948;9.208;2022-07-12T09:32:59;0.90;;;0.50;;
18090;SDS011;9172;49.948;9.208;2022-07-12T09:35:58;1.13;;;0.70;;
18090;SDS011;9172;49.948;9.208;2022-07-12T09:38:33;0.80;;;0.70;;
18090;SDS011;9172;49.948;9.208;2022-07-12T09:41:03;1.90;;;0.50;;
18090;SDS011;9172;49.948;9.208;2022-07-12T09:43:33;0.57;;;0.50;;
18090;SDS011;9172;49.948;9.208;2022-07-12T09:46:02;1.10;;;0.60;;
18090;SDS011;9172;49.948;9.208;2022-07-12T09:48:32;1.43;;;0.80;;
18090;SDS011;9172;49.948;9.208;2022-07-12T09:51:03;0.43;;;0.43;;
18090;SDS011;9172;49.948;9.208;2022-07-12T09:53:37;1.50;;;0.67;;
18090;SDS011;9172;49.948;9.208;2022-07-12T09:56:07;0.57;;;0.50;;
18090;SDS011;9172;49.948;9.208;2022-07-12T09:58:39;0.93;;;0.60;;
18090;SDS011;9172;49.948;9.208;2022-07-12T10:01:10;0.50;;;0.50;;
18090;SDS011;9172;49.948;9.208;2022-07-12T10:03:40;0.80;;;0.60;;
18090;SDS011;9172;49.948;9.208;2022-07-12T10:06:12;1.13;;;0.67;;
18090;SDS011;9172;49.948;9.208;2022-07-12T10:08:42;0.50;;;0.50;;
18090;SDS011;9172;49.948;9.208;2022-07-12T10:11:12;0.70;;;0.60;;
18090;SDS011;9172;49.948;9.208;2022-07-12T10:13:41;1.30;;;0.70;;
18090;SDS011;9172;49.948;9.208;2022-07-12T10:16:25;0.50;;;0.40;;
18090;SDS011;9172;49.948;9.208;2022-07-12T10:19:20;1.10;;;0.80;;
18090;SDS011;9172;49.948;9.208;2022-07-12T10:21:50;4.73;;;0.80;;
18090;SDS011;9172;49.948;9.208;2022-07-12T10:27:28;0.60;;;0.50;;
18090;SDS011;9172;49.948;9.208;2022-07-12T10:30:15;1.13;;;0.50;;
18090;SDS011;9172;49.948;9.208;2022-07-12T10:32:45;0.75;;;0.60;;
18090;SDS011;9172;49.948;9.208;2022-07-12T10:35:19;0.70;;;0.60;;
18090;SDS011;9172;49.948;9.208;2022-07-12T10:40:43;1.57;;;0.70;;
18090;SDS011;9172;49.948;9.208;2022-07-12T10:43:20;1.10;;;0.75;;
18090;SDS011;9172;49.948;9.208;2022-07-12T10:46:19;1.42;;;0.60;;
18090;SDS011;9172;49.948;9.208;2022-07-12T10:48:51;0.88;;;0.62;;
18090;SDS011;9172;49.948;9.208;2022-07-12T10:54:42;0.60;;;0.50;;
18090;SDS011;9172;49.948;9.208;2022-07-12T10:57:16;0.88;;;0.55;;
18090;SDS011;9172;49.948;9.208;2022-07-12T10:59:56;2.25;;;0.70;;
18090;SDS011;9172;49.948;9.208;2022-07-12T11:02:26;0.42;;;0.40;;
18090;SDS011;9172;49.948;9.208;2022-07-12T11:04:56;0.93;;;0.40;;
18090;SDS011;9172;49.948;9.208;2022-07-12T11:07:26;1.37;;;0.40;;
18090;SDS011;9172;49.948;9.208;2022-07-12T11:09:55;0.50;;;0.40;;
18090;SDS011;9172;49.948;9.208;2022-07-12T11:12:27;1.00;;;0.60;;
18090;SDS011;9172;49.948;9.208;2022-07-12T11:14:57;2.47;;;0.50;;
18090;SDS011;9172;49.948;9.208;2022-07-12T11:17:27;3.60;;;0.50;;
18090;SDS011;9172;49.948;9.208;2022-07-12T11:20:07;0.68;;;0.57;;
18090;SDS011;9172;49.948;9.208;2022-07-12T11:22:38;0.85;;;0.60;;
18090;SDS011;9172;49.948;9.208;2022-07-12T11:25:09;3.22;;;0.60;;
18090;SDS011;9172;49.948;9.208;2022-07-12T11:27:39;3.95;;;0.53;;
18090;SDS011;9172;49.948;9.208;2022-07-12T11:30:09;0.53;;;0.50;;
18090;SDS011;9172;49.948;9.208;2022-07-12T11:32:40;0.65;;;0.50;;
18090;SDS011;9172;49.948;9.208;2022-07-12T11:35:19;0.40;;;0.40;;
18090;SDS011;9172;49.948;9.208;2022-07-12T11:37:53;0.98;;;0.50;;
18090;SDS011;9172;49.948;9.208;2022-07-12T11:40:23;5.37;;;0.70;;
18090;SDS011;9172;49.948;9.208;2022-07-12T11:42:54;1.10;;;0.30;;
18090;SDS011;9172;49.948;9.208;2022-07-12T11:45:25;1.20;;;0.60;;
18090;SDS011;9172;49.948;9.208;2022-07-12T11:47:54;0.75;;;0.50;;
18090;SDS011;9172;49.948;9.208;2022-07-12T11:50:24;1.85;;;0.40;;
18090;SDS011;9172;49.948;9.208;2022-07-12T11:52:54;0.50;;;0.40;;
18090;SDS011;9172;49.948;9.208;2022-07-12T11:55:23;0.70;;;0.70;;
18090;SDS011;9172;49.948;9.208;2022-07-12T11:57:51;1.50;;;0.60;;
18090;SDS011;9172;49.948;9.208;2022-07-12T12:00:31;0.90;;;0.50;;
18090;SDS011;9172;49.948;9.208;2022-07-12T12:03:00;2.90;;;0.60;;
18090;SDS011;9172;49.948;9.208;2022-07-12T12:05:30;0.50;;;0.45;;
18090;SDS011;9172;49.948;9.208;2022-07-12T12:08:00;1.72;;;0.60;;
18090;SDS011;9172;49.948;9.208;2022-07-12T12:10:29;0.80;;;0.50;;
18090;SDS011;9172;49.948;9.208;2022-07-12T12:13:00;0.65;;;0.50;;
18090;SDS011;9172;49.948;9.208;2022-07-12T12:15:30;0.90;;;0.40;;
18090;SDS011;9172;49.948;9.208;2022-07-12T12:18:00;0.65;;;0.40;;
18090;SDS011;9172;49.948;9.208;2022-07-12T12:20:30;1.98;;;0.55;;
18090;SDS011;9172;49.948;9.208;2022-07-12T12:23:01;1.12;;;0.57;;
18090;SDS011;9172;49.948;9.208;2022-07-12T12:25:31;0.68;;;0.45;;
18090;SDS011;9172;49.948;9.208;2022-07-12T12:28:02;1.22;;;0.40;;
18090;SDS011;9172;49.948;9.208;2022-07-12T12:30:32;1.00;;;0.45;;
18090;SDS011;9172;49.948;9.208;2022-07-12T12:33:03;0.68;;;0.50;;
18090;SDS011;9172;49.948;9.208;2022-07-12T12:35:33;3.60;;;0.65;;
18090;SDS011;9172;49.948;9.208;2022-07-12T12:38:03;1.07;;;0.60;;
18090;SDS011;9172;49.948;9.208;2022-07-12T12:40:38;0.88;;;0.60;;
18090;SDS011;9172;49.948;9.208;2022-07-12T12:43:09;0.80;;;0.40;;
18090;SDS011;9172;49.948;9.208;2022-07-12T12:45:48;0.45;;;0.45;;
18090;SDS011;9172;49.948;9.208;2022-07-12T12:48:18;1.90;;;0.55;;
18090;SDS011;9172;49.948;9.208;2022-07-12T12:50:48;1.30;;;0.90;;
18090;SDS011;9172;49.948;9.208;2022-07-12T12:53:18;2.55;;;0.70;;
18090;SDS011;9172;49.948;9.208;2022-07-12T12:55:50;0.60;;;0.60;;
18090;SDS011;9172;49.948;9.208;2022-07-12T12:58:21;0.95;;;0.80;;
18090;SDS011;9172;49.948;9.208;2022-07-12T13:00:52;0.98;;;0.53;;
18090;SDS011;9172;49.948;9.208;2022-07-12T13:03:23;1.25;;;0.57;;
18090;SDS011;9172;49.948;9.208;2022-07-12T13:05:52;0.98;;;0.60;;
18090;SDS011;9172;49.948;9.208;2022-07-12T13:08:21;2.85;;;0.65;;
18090;SDS011;9172;49.948;9.208;2022-07-12T13:10:50;1.20;;;0.60;;
18090;SDS011;9172;49.948;9.208;2022-07-12T13:13:38;3.08;;;0.70;;
18090;SDS011;9172;49.948;9.208;2022-07-12T13:16:07;1.10;;;0.50;;
18090;SDS011;9172;49.948;9.208;2022-07-12T13:18:37;0.70;;;0.50;;
18090;SDS011;9172;49.948;9.208;2022-07-12T13:21:06;4.03;;;0.72;;
18090;SDS011;9172;49.948;9.208;2022-07-12T13:23:36;0.60;;;0.30;;
18090;SDS011;9172;49.948;9.208;2022-07-12T13:26:05;1.10;;;0.82;;
18090;SDS011;9172;49.948;9.208;2022-07-12T13:28:34;0.68;;;0.40;;
18090;SDS011;9172;49.948;9.208;2022-07-12T13:31:03;0.50;;;0.45;;
18090;SDS011;9172;49.948;9.208;2022-07-12T13:33:32;0.50;;;0.50;;
18090;SDS011;9172;49.948;9.208;2022-07-12T13:36:02;1.12;;;0.68;;
18090;SDS011;9172;49.948;9.208;2022-07-12T13:38:31;0.95;;;0.40;;
18090;SDS011;9172;49.948;9.208;2022-07-12T13:41:00;0.80;;;0.50;;
18090;SDS011;9172;49.948;9.208;2022-07-12T13:43:31;0.80;;;0.40;;
18090;SDS011;9172;49.948;9.208;2022-07-12T13:46:01;0.62;;;0.42;;
18090;SDS011;9172;49.948;9.208;2022-07-12T13:48:30;0.75;;;0.50;;
18090;SDS011;9172;49.948;9.208;2022-07-12T13:51:00;1.10;;;0.60;;
18090;SDS011;9172;49.948;9.208;2022-07-12T13:53:31;0.82;;;0.60;;
18090;SDS011;9172;49.948;9.208;2022-07-12T13:56:00;1.65;;;0.80;;
18090;SDS011;9172;49.948;9.208;2022-07-12T13:58:30;0.50;;;0.50;;
18090;SDS011;9172;49.948;9.208;2022-07-12T14:00:58;1.15;;;0.57;;
18090;SDS011;9172;49.948;9.208;2022-07-12T14:03:29;2.45;;;0.57;;
18090;SDS011;9172;49.948;9.208;2022-07-12T14:05:59;0.70;;;0.50;;
18090;SDS011;9172;49.948;9.208;2022-07-12T14:11:05;0.82;;;0.50;;
18090;SDS011;9172;49.948;9.208;2022-07-12T14:13:34;0.60;;;0.50;;
18090;SDS011;9172;49.948;9.208;2022-07-12T14:16:12;1.12;;;0.50;;
18090;SDS011;9172;49.948;9.208;2022-07-12T14:18:41;0.60;;;0.40;;
18090;SDS011;9172;49.948;9.208;2022-07-12T14:21:13;0.80;;;0.70;;
18090;SDS011;9172;49.948;9.208;2022-07-12T14:23:44;0.50;;;0.50;;
18090;SDS011;9172;49.948;9.208;2022-07-12T14:26:14;0.53;;;0.50;;
18090;SDS011;9172;49.948;9.208;2022-07-12T14:28:43;0.78;;;0.50;;
18090;SDS011;9172;49.948;9.208;2022-07-12T14:31:12;0.40;;;0.40;;
18090;SDS011;9172;49.948;9.208;2022-07-12T14:33:41;0.55;;;0.55;;
18090;SDS011;9172;49.948;9.208;2022-07-12T14:36:11;0.98;;;0.50;;
18090;SDS011;9172;49.948;9.208;2022-07-12T14:38:40;0.70;;;0.42;;
18090;SDS011;9172;49.948;9.208;2022-07-12T14:41:09;6.00;;;0.88;;
18090;SDS011;9172;49.948;9.208;2022-07-12T14:43:39;2.65;;;0.60;;
18090;SDS011;9172;49.948;9.208;2022-07-12T14:46:17;2.12;;;0.42;;
18090;SDS011;9172;49.948;9.208;2022-07-12T14:48:47;0.62;;;0.50;;
18090;SDS011;9172;49.948;9.208;2022-07-12T14:51:16;0.98;;;0.50;;
18090;SDS011;9172;49.948;9.208;2022-07-12T14:53:44;2.25;;;0.60;;
18090;SDS011;9172;49.948;9.208;2022-07-12T14:56:14;0.50;;;0.50;;
18090;SDS011;9172;49.948;9.208;2022-07-12T14:58:43;1.85;;;0.40;;
18090;SDS011;9172;49.948;9.208;2022-07-12T15:01:12;1.20;;;0.60;;
18090;SDS011;9172;49.948;9.208;2022-07-12T15:03:42;0.98;;;0.68;;
18090;SDS011;9172;49.948;9.208;2022-07-12T15:06:12;0.65;;;0.50;;
18090;SDS011;9172;49.948;9.208;2022-07-12T15:08:41;0.72;;;0.40;;
18090;SDS011;9172;49.948;9.208;2022-07-12T15:11:10;1.40;;;0.60;;
18090;SDS011;9172;49.948;9.208;2022-07-12T15:13:39;2.50;;;0.70;;
18090;SDS011;9172;49.948;9.208;2022-07-12T15:16:11;0.57;;;0.50;;
18090;SDS011;9172;49.948;9.208;2022-07-12T15:18:41;0.60;;;0.45;;
18090;SDS011;9172;49.948;9.208;2022-07-12T15:21:10;0.95;;;0.60;;
18090;SDS011;9172;49.948;9.208;2022-07-12T15:23:39;0.93;;;0.40;;
18090;SDS011;9172;49.948;9.208;2022-07-12T15:26:07;0.60;;;0.50;;
18090;SDS011;9172;49.948;9.208;2022-07-12T15:28:48;3.92;;;0.82;;
18090;SDS011;9172;49.948;9.208;2022-07-12T15:31:17;3.08;;;0.47;;
18090;SDS011;9172;49.948;9.208;2022-07-12T15:33:46;0.50;;;0.50;;